sensor_id;sensor_type;location;lat;lon;timestamp;P1;durP1;ratioP1;P2;durP2;ratioP2
8564;SDS011;4320;51.498;6.556;2022-08-02T00:01:42;3.97;;;2.40;;
8564;SDS011;4320;51.498;6.556;2022-08-02T00:04:08;2.88;;;2.08;;
8564;SDS011;4320;51.498;6.556;2022-08-02T00:06:35;7.57;;;2.60;;
8564;SDS011;4320;51.498;6.556;2022-08-02T00:09:02;2.97;;;2.20;;
8564;SDS011;4320;51.498;6.556;2022-08-02T00:11:29;2.85;;;1.95;;
8564;SDS011;4320;51.498;6.556;2022-08-02T00:13:54;3.33;;;2.20;;
8564;SDS011;4320;51.498;6.556;2022-08-02T00:16:20;5.40;;;2.17;;
8564;SDS011;4320;51.498;6.556;2022-08-02T00:18:46;5.40;;;2.20;;
8564;SDS011;4320;51.498;6.556;2022-08-02T00:21:12;3.33;;;2.00;;
8564;SDS011;4320;51.498;6.556;2022-08-02T00:23:37;7.25;;;2.53;;
8564;SDS011;4320;51.498;6.556;2022-08-02T00:26:03;3.55;;;2.53;;
8564;SDS011;4320;51.498;6.556;2022-08-02T00:28:29;7.78;;;2.42;;
8564;SDS011;4320;51.498;6.556;2022-08-02T00:30:57;6.15;;;2.58;;
8564;SDS011;4320;51.498;6.556;2022-08-02T00:33:24;5.50;;;2.63;;
8564;SDS011;4320;51.498;6.556;2022-08-02T00:35:50;3.33;;;2.30;;
8564;SDS011;4320;51.498;6.556;2022-08-02T00:38:16;5.65;;;2.03;;
8564;SDS011;4320;51.498;6.556;2022-08-02T00:40:48;6.22;;;2.33;;
8564;SDS011;4320;51.498;6.556;2022-08-02T00:43:15;2.90;;;2.60;;
8564;SDS011;4320;51.498;6.556;2022-08-02T00:45:41;5.03;;;2.38;;
8564;SDS011;4320;51.498;6.556;2022-08-02T00:48:08;4.55;;;2.42;;
8564;SDS011;4320;51.498;6.556;2022-08-02T00:50:36;6.93;;;2.83;;
8564;SDS011;4320;51.498;6.556;2022-08-02T00:53:02;5.43;;;2.58;;
8564;SDS011;4320;51.498;6.556;2022-08-02T00:55:29;5.53;;;2.60;;
8564;SDS011;4320;51.498;6.556;2022-08-02T00:57:55;4.43;;;2.35;;
8564;SDS011;4320;51.498;6.556;2022-08-02T01:00:21;4.10;;;2.40;;
8564;SDS011;4320;51.498;6.556;2022-08-02T01:02:47;3.42;;;2.33;;
8564;SDS011;4320;51.498;6.556;2022-08-02T01:05:13;4.05;;;2.33;;
8564;SDS011;4320;51.498;6.556;2022-08-02T01:07:40;4.97;;;2.22;;
8564;SDS011;4320;51.498;6.556;2022-08-02T01:10:05;5.32;;;2.40;;
8564;SDS011;4320;51.498;6.556;2022-08-02T01:12:32;5.57;;;2.28;;
8564;SDS011;4320;51.498;6.556;2022-08-02T01:14:59;3.45;;;2.40;;
8564;SDS011;4320;51.498;6.556;2022-08-02T01:26:08;3.17;;;2.22;;
8564;SDS011;4320;51.498;6.556;2022-08-02T01:29:00;4.20;;;2.70;;
8564;SDS011;4320;51.498;6.556;2022-08-02T01:31:39;2.75;;;2.50;;
8564;SDS011;4320;51.498;6.556;2022-08-02T01:39:42;4.00;;;2.20;;
8564;SDS011;4320;51.498;6.556;2022-08-02T01:42:10;6.07;;;2.58;;
8564;SDS011;4320;51.498;6.556;2022-08-02T01:44:39;4.80;;;2.25;;
8564;SDS011;4320;51.498;6.556;2022-08-02T01:47:16;4.50;;;2.75;;
8564;SDS011;4320;51.498;6.556;2022-08-02T01:49:48;4.93;;;2.40;;
8564;SDS011;4320;51.498;6.556;2022-08-02T01:52:17;3.72;;;2.72;;
8564;SDS011;4320;51.498;6.556;2022-08-02T01:54:46;4.57;;;2.30;;
8564;SDS011;4320;51.498;6.556;2022-08-02T01:57:38;4.68;;;2.47;;
8564;SDS011;4320;51.498;6.556;2022-08-02T02:00:07;8.45;;;2.72;;
8564;SDS011;4320;51.498;6.556;2022-08-02T02:02:35;5.13;;;3.05;;
8564;SDS011;4320;51.498;6.556;2022-08-02T02:05:04;3.50;;;2.78;;
8564;SDS011;4320;51.498;6.556;2022-08-02T02:07:31;5.40;;;3.13;;
8564;SDS011;4320;51.498;6.556;2022-08-02T02:09:59;5.50;;;2.70;;
8564;SDS011;4320;51.498;6.556;2022-08-02T02:12:26;4.05;;;2.60;;
8564;SDS011;4320;51.498;6.556;2022-08-02T02:14:55;5.13;;;2.75;;
8564;SDS011;4320;51.498;6.556;2022-08-02T02:17:22;6.03;;;3.22;;
8564;SDS011;4320;51.498;6.556;2022-08-02T02:19:49;3.17;;;2.83;;
8564;SDS011;4320;51.498;6.556;2022-08-02T02:22:17;5.18;;;2.85;;
8564;SDS011;4320;51.498;6.556;2022-08-02T02:24:43;6.35;;;3.25;;
8564;SDS011;4320;51.498;6.556;2022-08-02T02:27:09;6.07;;;3.28;;
8564;SDS011;4320;51.498;6.556;2022-08-02T02:29:38;4.22;;;2.55;;
8564;SDS011;4320;51.498;6.556;2022-08-02T02:32:08;3.17;;;2.83;;
8564;SDS011;4320;51.498;6.556;2022-08-02T02:34:36;4.97;;;3.10;;
8564;SDS011;4320;51.498;6.556;2022-08-02T02:37:06;5.88;;;3.42;;
8564;SDS011;4320;51.498;6.556;2022-08-02T02:39:36;7.03;;;2.75;;
8564;SDS011;4320;51.498;6.556;2022-08-02T02:42:06;5.95;;;2.97;;
8564;SDS011;4320;51.498;6.556;2022-08-02T02:44:34;6.32;;;3.47;;
8564;SDS011;4320;51.498;6.556;2022-08-02T02:47:02;7.45;;;2.92;;
8564;SDS011;4320;51.498;6.556;2022-08-02T02:49:30;4.20;;;3.00;;
8564;SDS011;4320;51.498;6.556;2022-08-02T02:51:58;5.70;;;3.10;;
8564;SDS011;4320;51.498;6.556;2022-08-02T02:54:24;6.07;;;3.25;;
8564;SDS011;4320;51.498;6.556;2022-08-02T02:56:51;4.82;;;3.35;;
8564;SDS011;4320;51.498;6.556;2022-08-02T02:59:18;6.32;;;3.45;;
8564;SDS011;4320;51.498;6.556;2022-08-02T03:01:44;7.65;;;3.80;;
8564;SDS011;4320;51.498;6.556;2022-08-02T03:04:10;4.70;;;3.30;;
8564;SDS011;4320;51.498;6.556;2022-08-02T03:06:38;6.22;;;3.58;;
8564;SDS011;4320;51.498;6.556;2022-08-02T03:09:04;5.72;;;3.47;;
8564;SDS011;4320;51.498;6.556;2022-08-02T03:11:31;5.88;;;3.65;;
8564;SDS011;4320;51.498;6.556;2022-08-02T03:13:58;3.83;;;3.03;;
8564;SDS011;4320;51.498;6.556;2022-08-02T03:16:25;4.35;;;3.40;;
8564;SDS011;4320;51.498;6.556;2022-08-02T03:18:52;9.45;;;3.90;;
8564;SDS011;4320;51.498;6.556;2022-08-02T03:21:19;6.80;;;3.53;;
8564;SDS011;4320;51.498;6.556;2022-08-02T03:23:45;4.50;;;3.53;;
8564;SDS011;4320;51.498;6.556;2022-08-02T03:26:11;5.10;;;3.13;;
8564;SDS011;4320;51.498;6.556;2022-08-02T03:28:37;6.40;;;3.45;;
8564;SDS011;4320;51.498;6.556;2022-08-02T03:31:03;8.20;;;3.47;;
8564;SDS011;4320;51.498;6.556;2022-08-02T03:33:29;6.53;;;3.80;;
8564;SDS011;4320;51.498;6.556;2022-08-02T03:35:57;5.35;;;3.20;;
8564;SDS011;4320;51.498;6.556;2022-08-02T03:38:25;4.88;;;3.40;;
8564;SDS011;4320;51.498;6.556;2022-08-02T03:40:52;6.32;;;3.22;;
8564;SDS011;4320;51.498;6.556;2022-08-02T03:43:20;4.93;;;3.55;;
8564;SDS011;4320;51.498;6.556;2022-08-02T03:45:47;3.20;;;2.85;;
8564;SDS011;4320;51.498;6.556;2022-08-02T03:48:13;5.57;;;3.00;;
8564;SDS011;4320;51.498;6.556;2022-08-02T03:50:41;8.90;;;3.20;;
8564;SDS011;4320;51.498;6.556;2022-08-02T03:53:07;6.28;;;3.25;;
8564;SDS011;4320;51.498;6.556;2022-08-02T03:55:34;3.90;;;3.33;;
8564;SDS011;4320;51.498;6.556;2022-08-02T03:58:00;5.90;;;3.20;;
8564;SDS011;4320;51.498;6.556;2022-08-02T04:00:26;6.05;;;3.53;;
8564;SDS011;4320;51.498;6.556;2022-08-02T04:02:52;7.38;;;3.20;;
8564;SDS011;4320;51.498;6.556;2022-08-02T04:05:18;6.10;;;3.55;;
8564;SDS011;4320;51.498;6.556;2022-08-02T04:07:44;5.78;;;3.90;;
8564;SDS011;4320;51.498;6.556;2022-08-02T04:10:11;5.13;;;3.40;;
8564;SDS011;4320;51.498;6.556;2022-08-02T04:12:36;6.25;;;3.58;;
8564;SDS011;4320;51.498;6.556;2022-08-02T04:15:03;5.60;;;3.42;;
8564;SDS011;4320;51.498;6.556;2022-08-02T04:17:30;8.68;;;3.13;;
8564;SDS011;4320;51.498;6.556;2022-08-02T04:20:00;5.03;;;3.03;;
8564;SDS011;4320;51.498;6.556;2022-08-02T04:22:55;6.65;;;3.28;;
8564;SDS011;4320;51.498;6.556;2022-08-02T04:25:32;5.68;;;3.53;;
8564;SDS011;4320;51.498;6.556;2022-08-02T04:27:59;5.75;;;3.30;;
8564;SDS011;4320;51.498;6.556;2022-08-02T04:30:27;5.18;;;3.40;;
8564;SDS011;4320;51.498;6.556;2022-08-02T04:32:53;5.40;;;3.45;;
8564;SDS011;4320;51.498;6.556;2022-08-02T04:35:20;4.95;;;3.40;;
8564;SDS011;4320;51.498;6.556;2022-08-02T04:37:46;5.03;;;3.40;;
8564;SDS011;4320;51.498;6.556;2022-08-02T04:40:13;8.77;;;3.53;;
8564;SDS011;4320;51.498;6.556;2022-08-02T04:42:39;6.57;;;3.72;;
8564;SDS011;4320;51.498;6.556;2022-08-02T04:45:06;12.75;;;4.03;;
8564;SDS011;4320;51.498;6.556;2022-08-02T04:47:33;5.50;;;3.65;;
8564;SDS011;4320;51.498;6.556;2022-08-02T04:49:58;8.63;;;3.83;;
8564;SDS011;4320;51.498;6.556;2022-08-02T04:52:24;5.22;;;3.80;;
8564;SDS011;4320;51.498;6.556;2022-08-02T04:54:50;9.98;;;4.90;;
8564;SDS011;4320;51.498;6.556;2022-08-02T04:57:18;13.27;;;4.03;;
8564;SDS011;4320;51.498;6.556;2022-08-02T05:00:05;5.45;;;4.13;;
8564;SDS011;4320;51.498;6.556;2022-08-02T05:02:33;6.60;;;4.25;;
8564;SDS011;4320;51.498;6.556;2022-08-02T05:04:59;8.80;;;4.32;;
8564;SDS011;4320;51.498;6.556;2022-08-02T05:07:25;5.45;;;3.83;;
8564;SDS011;4320;51.498;6.556;2022-08-02T05:09:50;8.52;;;4.07;;
8564;SDS011;4320;51.498;6.556;2022-08-02T05:12:16;5.30;;;4.35;;
8564;SDS011;4320;51.498;6.556;2022-08-02T05:14:43;15.18;;;4.55;;
8564;SDS011;4320;51.498;6.556;2022-08-02T05:17:09;8.80;;;4.65;;
8564;SDS011;4320;51.498;6.556;2022-08-02T05:19:34;8.77;;;4.18;;
8564;SDS011;4320;51.498;6.556;2022-08-02T05:22:00;9.88;;;4.60;;
8564;SDS011;4320;51.498;6.556;2022-08-02T05:24:25;8.30;;;4.07;;
8564;SDS011;4320;51.498;6.556;2022-08-02T05:26:51;9.43;;;5.20;;
8564;SDS011;4320;51.498;6.556;2022-08-02T05:29:17;8.15;;;4.95;;
8564;SDS011;4320;51.498;6.556;2022-08-02T05:31:42;8.82;;;4.82;;
8564;SDS011;4320;51.498;6.556;2022-08-02T05:34:09;6.78;;;4.32;;
8564;SDS011;4320;51.498;6.556;2022-08-02T05:36:35;10.60;;;5.40;;
8564;SDS011;4320;51.498;6.556;2022-08-02T05:39:01;10.10;;;4.78;;
8564;SDS011;4320;51.498;6.556;2022-08-02T05:41:27;7.10;;;5.45;;
8564;SDS011;4320;51.498;6.556;2022-08-02T05:43:52;8.18;;;5.28;;
8564;SDS011;4320;51.498;6.556;2022-08-02T05:46:18;8.60;;;5.63;;
8564;SDS011;4320;51.498;6.556;2022-08-02T05:48:43;12.65;;;6.25;;
8564;SDS011;4320;51.498;6.556;2022-08-02T05:51:20;12.30;;;6.80;;
8564;SDS011;4320;51.498;6.556;2022-08-02T05:54:02;10.63;;;6.30;;
8564;SDS011;4320;51.498;6.556;2022-08-02T05:56:55;11.75;;;5.68;;
8564;SDS011;4320;51.498;6.556;2022-08-02T05:59:33;7.55;;;5.47;;
8564;SDS011;4320;51.498;6.556;2022-08-02T06:02:27;8.02;;;5.75;;
8564;SDS011;4320;51.498;6.556;2022-08-02T06:05:06;11.07;;;6.57;;
8564;SDS011;4320;51.498;6.556;2022-08-02T06:07:36;10.25;;;6.35;;
8564;SDS011;4320;51.498;6.556;2022-08-02T06:10:04;9.30;;;6.32;;
8564;SDS011;4320;51.498;6.556;2022-08-02T06:12:32;12.30;;;6.60;;
8564;SDS011;4320;51.498;6.556;2022-08-02T06:15:02;12.73;;;6.13;;
8564;SDS011;4320;51.498;6.556;2022-08-02T06:17:29;10.65;;;6.93;;
8564;SDS011;4320;51.498;6.556;2022-08-02T06:19:56;9.88;;;6.15;;
8564;SDS011;4320;51.498;6.556;2022-08-02T06:22:27;7.18;;;5.80;;
8564;SDS011;4320;51.498;6.556;2022-08-02T06:24:54;10.25;;;6.45;;
8564;SDS011;4320;51.498;6.556;2022-08-02T06:27:26;13.48;;;6.50;;
8564;SDS011;4320;51.498;6.556;2022-08-02T06:29:52;9.88;;;6.13;;
8564;SDS011;4320;51.498;6.556;2022-08-02T06:32:19;12.52;;;5.95;;
8564;SDS011;4320;51.498;6.556;2022-08-02T06:34:45;9.85;;;5.28;;
8564;SDS011;4320;51.498;6.556;2022-08-02T06:39:44;10.48;;;6.85;;
8564;SDS011;4320;51.498;6.556;2022-08-02T06:42:13;9.45;;;5.18;;
8564;SDS011;4320;51.498;6.556;2022-08-02T06:44:41;10.20;;;5.75;;
8564;SDS011;4320;51.498;6.556;2022-08-02T06:47:07;8.10;;;5.28;;
8564;SDS011;4320;51.498;6.556;2022-08-02T06:49:33;13.05;;;6.22;;
8564;SDS011;4320;51.498;6.556;2022-08-02T06:51:59;10.85;;;5.82;;
8564;SDS011;4320;51.498;6.556;2022-08-02T06:54:24;9.48;;;5.80;;
8564;SDS011;4320;51.498;6.556;2022-08-02T06:56:50;9.60;;;5.82;;
8564;SDS011;4320;51.498;6.556;2022-08-02T06:59:16;9.85;;;5.55;;
8564;SDS011;4320;51.498;6.556;2022-08-02T07:01:41;10.05;;;5.75;;
8564;SDS011;4320;51.498;6.556;2022-08-02T07:04:08;13.23;;;5.60;;
8564;SDS011;4320;51.498;6.556;2022-08-02T07:06:34;9.35;;;5.75;;
8564;SDS011;4320;51.498;6.556;2022-08-02T07:08:59;10.63;;;5.72;;
8564;SDS011;4320;51.498;6.556;2022-08-02T07:11:25;11.32;;;5.20;;
8564;SDS011;4320;51.498;6.556;2022-08-02T07:13:51;7.40;;;5.50;;
8564;SDS011;4320;51.498;6.556;2022-08-02T07:16:16;10.32;;;5.25;;
8564;SDS011;4320;51.498;6.556;2022-08-02T07:18:42;9.43;;;5.55;;
8564;SDS011;4320;51.498;6.556;2022-08-02T07:21:08;8.05;;;5.13;;
8564;SDS011;4320;51.498;6.556;2022-08-02T07:23:33;6.43;;;5.47;;
8564;SDS011;4320;51.498;6.556;2022-08-02T07:25:59;8.30;;;4.88;;
8564;SDS011;4320;51.498;6.556;2022-08-02T07:28:25;8.48;;;5.90;;
8564;SDS011;4320;51.498;6.556;2022-08-02T07:30:51;9.60;;;4.88;;
8564;SDS011;4320;51.498;6.556;2022-08-02T07:33:16;7.28;;;5.15;;
8564;SDS011;4320;51.498;6.556;2022-08-02T07:35:42;6.10;;;4.72;;
8564;SDS011;4320;51.498;6.556;2022-08-02T07:38:08;10.15;;;4.93;;
8564;SDS011;4320;51.498;6.556;2022-08-02T07:40:33;6.68;;;4.32;;
8564;SDS011;4320;51.498;6.556;2022-08-02T07:42:59;8.38;;;4.60;;
8564;SDS011;4320;51.498;6.556;2022-08-02T07:45:26;5.97;;;4.90;;
8564;SDS011;4320;51.498;6.556;2022-08-02T07:47:52;7.28;;;4.30;;
8564;SDS011;4320;51.498;6.556;2022-08-02T07:50:19;7.72;;;4.38;;
8564;SDS011;4320;51.498;6.556;2022-08-02T07:52:46;6.72;;;4.50;;
8564;SDS011;4320;51.498;6.556;2022-08-02T07:55:13;6.93;;;4.53;;
8564;SDS011;4320;51.498;6.556;2022-08-02T07:57:40;5.75;;;4.35;;
8564;SDS011;4320;51.498;6.556;2022-08-02T08:00:07;7.43;;;4.38;;
8564;SDS011;4320;51.498;6.556;2022-08-02T08:02:36;5.25;;;4.03;;
8564;SDS011;4320;51.498;6.556;2022-08-02T08:05:02;6.60;;;4.38;;
8564;SDS011;4320;51.498;6.556;2022-08-02T08:07:27;6.85;;;4.13;;
8564;SDS011;4320;51.498;6.556;2022-08-02T08:09:53;5.65;;;3.90;;
8564;SDS011;4320;51.498;6.556;2022-08-02T08:12:19;6.50;;;3.90;;
8564;SDS011;4320;51.498;6.556;2022-08-02T08:14:45;6.55;;;3.63;;
8564;SDS011;4320;51.498;6.556;2022-08-02T08:17:10;7.07;;;3.90;;
8564;SDS011;4320;51.498;6.556;2022-08-02T08:19:36;4.03;;;3.38;;
8564;SDS011;4320;51.498;6.556;2022-08-02T08:22:02;4.60;;;3.88;;
8564;SDS011;4320;51.498;6.556;2022-08-02T08:24:28;4.90;;;3.63;;
8564;SDS011;4320;51.498;6.556;2022-08-02T08:26:54;6.75;;;4.03;;
8564;SDS011;4320;51.498;6.556;2022-08-02T08:29:20;4.88;;;3.72;;
8564;SDS011;4320;51.498;6.556;2022-08-02T08:31:47;6.05;;;3.67;;
8564;SDS011;4320;51.498;6.556;2022-08-02T08:34:13;9.48;;;4.35;;
8564;SDS011;4320;51.498;6.556;2022-08-02T08:36:39;16.45;;;4.15;;
8564;SDS011;4320;51.498;6.556;2022-08-02T08:39:05;7.22;;;3.55;;
8564;SDS011;4320;51.498;6.556;2022-08-02T08:41:31;5.03;;;4.28;;
8564;SDS011;4320;51.498;6.556;2022-08-02T08:43:57;6.40;;;4.13;;
8564;SDS011;4320;51.498;6.556;2022-08-02T08:46:26;5.10;;;3.50;;
8564;SDS011;4320;51.498;6.556;2022-08-02T08:49:17;7.93;;;4.30;;
8564;SDS011;4320;51.498;6.556;2022-08-02T08:51:47;7.78;;;4.30;;
8564;SDS011;4320;51.498;6.556;2022-08-02T08:54:15;5.70;;;3.80;;
8564;SDS011;4320;51.498;6.556;2022-08-02T08:56:42;5.28;;;3.90;;
8564;SDS011;4320;51.498;6.556;2022-08-02T08:59:09;9.57;;;3.60;;
8564;SDS011;4320;51.498;6.556;2022-08-02T09:01:35;5.50;;;3.22;;
8564;SDS011;4320;51.498;6.556;2022-08-02T09:04:01;6.68;;;3.30;;
8564;SDS011;4320;51.498;6.556;2022-08-02T09:06:26;6.18;;;4.00;;
8564;SDS011;4320;51.498;6.556;2022-08-02T09:08:52;7.72;;;3.88;;
8564;SDS011;4320;51.498;6.556;2022-08-02T09:11:21;6.25;;;4.57;;
8564;SDS011;4320;51.498;6.556;2022-08-02T09:13:52;5.45;;;3.53;;
8564;SDS011;4320;51.498;6.556;2022-08-02T09:18:55;4.40;;;3.20;;
8564;SDS011;4320;51.498;6.556;2022-08-02T09:21:21;6.15;;;3.53;;
8564;SDS011;4320;51.498;6.556;2022-08-02T09:23:48;6.95;;;3.40;;
8564;SDS011;4320;51.498;6.556;2022-08-02T09:26:17;4.85;;;3.22;;
8564;SDS011;4320;51.498;6.556;2022-08-02T09:28:48;5.70;;;3.80;;
8564;SDS011;4320;51.498;6.556;2022-08-02T09:31:23;4.00;;;3.58;;
8564;SDS011;4320;51.498;6.556;2022-08-02T09:33:53;3.53;;;3.22;;
8564;SDS011;4320;51.498;6.556;2022-08-02T09:36:21;5.20;;;3.70;;
8564;SDS011;4320;51.498;6.556;2022-08-02T09:39:00;4.13;;;3.53;;
8564;SDS011;4320;51.498;6.556;2022-08-02T09:41:29;3.53;;;3.20;;
8564;SDS011;4320;51.498;6.556;2022-08-02T09:43:56;6.88;;;3.88;;
8564;SDS011;4320;51.498;6.556;2022-08-02T09:46:26;5.03;;;3.38;;
8564;SDS011;4320;51.498;6.556;2022-08-02T09:48:58;4.70;;;3.80;;
8564;SDS011;4320;51.498;6.556;2022-08-02T09:51:26;5.43;;;3.67;;
8564;SDS011;4320;51.498;6.556;2022-08-02T09:53:57;5.18;;;3.65;;
8564;SDS011;4320;51.498;6.556;2022-08-02T09:56:26;3.47;;;3.17;;
8564;SDS011;4320;51.498;6.556;2022-08-02T09:59:05;3.95;;;3.42;;
8564;SDS011;4320;51.498;6.556;2022-08-02T10:01:32;7.00;;;3.88;;
8564;SDS011;4320;51.498;6.556;2022-08-02T10:04:08;4.65;;;3.75;;
8564;SDS011;4320;51.498;6.556;2022-08-02T10:06:39;4.47;;;3.20;;
8564;SDS011;4320;51.498;6.556;2022-08-02T10:09:07;8.10;;;3.65;;
8564;SDS011;4320;51.498;6.556;2022-08-02T10:11:34;4.43;;;3.50;;
8564;SDS011;4320;51.498;6.556;2022-08-02T10:14:04;4.82;;;3.63;;
8564;SDS011;4320;51.498;6.556;2022-08-02T10:16:36;3.40;;;3.10;;
8564;SDS011;4320;51.498;6.556;2022-08-02T10:19:03;4.07;;;3.28;;
8564;SDS011;4320;51.498;6.556;2022-08-02T10:21:36;4.43;;;3.00;;
8564;SDS011;4320;51.498;6.556;2022-08-02T10:24:10;5.18;;;3.10;;
8564;SDS011;4320;51.498;6.556;2022-08-02T10:26:38;2.90;;;2.58;;
8564;SDS011;4320;51.498;6.556;2022-08-02T10:29:07;3.97;;;2.60;;
8564;SDS011;4320;51.498;6.556;2022-08-02T10:31:40;2.80;;;2.50;;
8564;SDS011;4320;51.498;6.556;2022-08-02T10:34:33;2.90;;;2.42;;
8564;SDS011;4320;51.498;6.556;2022-08-02T10:37:13;3.63;;;2.40;;
8564;SDS011;4320;51.498;6.556;2022-08-02T10:39:40;5.85;;;2.55;;
8564;SDS011;4320;51.498;6.556;2022-08-02T10:42:08;2.90;;;2.42;;
8564;SDS011;4320;51.498;6.556;2022-08-02T10:44:35;3.67;;;2.50;;
8564;SDS011;4320;51.498;6.556;2022-08-02T10:49:57;3.50;;;2.33;;
8564;SDS011;4320;51.498;6.556;2022-08-02T10:52:28;3.13;;;2.78;;
8564;SDS011;4320;51.498;6.556;2022-08-02T10:55:02;2.80;;;2.38;;
8564;SDS011;4320;51.498;6.556;2022-08-02T10:57:34;2.40;;;2.20;;
8564;SDS011;4320;51.498;6.556;2022-08-02T11:00:24;3.20;;;2.10;;
8564;SDS011;4320;51.498;6.556;2022-08-02T11:02:51;4.13;;;2.70;;
8564;SDS011;4320;51.498;6.556;2022-08-02T11:05:30;2.60;;;2.17;;
8564;SDS011;4320;51.498;6.556;2022-08-02T11:07:57;2.22;;;2.03;;
8564;SDS011;4320;51.498;6.556;2022-08-02T11:10:26;4.97;;;3.15;;
8564;SDS011;4320;51.498;6.556;2022-08-02T11:13:13;2.90;;;2.35;;
8564;SDS011;4320;51.498;6.556;2022-08-02T11:15:52;3.80;;;2.00;;
8564;SDS011;4320;51.498;6.556;2022-08-02T11:18:18;2.30;;;2.10;;
8564;SDS011;4320;51.498;6.556;2022-08-02T11:20:45;2.30;;;1.98;;
8564;SDS011;4320;51.498;6.556;2022-08-02T11:26:40;2.20;;;2.00;;
8564;SDS011;4320;51.498;6.556;2022-08-02T11:28:54;3.40;;;1.90;;
8564;SDS011;4320;51.498;6.556;2022-08-02T11:31:24;3.53;;;2.38;;
8564;SDS011;4320;51.498;6.556;2022-08-02T11:33:50;4.18;;;1.98;;
8564;SDS011;4320;51.498;6.556;2022-08-02T11:36:16;3.70;;;1.98;;
8564;SDS011;4320;51.498;6.556;2022-08-02T11:38:43;5.95;;;2.05;;
8564;SDS011;4320;51.498;6.556;2022-08-02T11:41:17;2.17;;;2.08;;
8564;SDS011;4320;51.498;6.556;2022-08-02T11:43:55;1.88;;;1.77;;
8564;SDS011;4320;51.498;6.556;2022-08-02T11:46:21;2.50;;;1.95;;
8564;SDS011;4320;51.498;6.556;2022-08-02T11:48:46;2.00;;;1.90;;
8564;SDS011;4320;51.498;6.556;2022-08-02T11:51:13;7.30;;;2.13;;
8564;SDS011;4320;51.498;6.556;2022-08-02T11:56:11;5.70;;;2.20;;
8564;SDS011;4320;51.498;6.556;2022-08-02T11:58:39;4.93;;;2.40;;
8564;SDS011;4320;51.498;6.556;2022-08-02T12:01:05;3.25;;;2.10;;
8564;SDS011;4320;51.498;6.556;2022-08-02T12:03:34;3.20;;;2.08;;
8564;SDS011;4320;51.498;6.556;2022-08-02T12:06:02;3.83;;;2.30;;
8564;SDS011;4320;51.498;6.556;2022-08-02T12:08:29;3.53;;;1.98;;
8564;SDS011;4320;51.498;6.556;2022-08-02T12:11:00;2.15;;;1.95;;
8564;SDS011;4320;51.498;6.556;2022-08-02T12:13:27;3.88;;;2.15;;
8564;SDS011;4320;51.498;6.556;2022-08-02T12:16:09;5.47;;;2.30;;
8564;SDS011;4320;51.498;6.556;2022-08-02T12:18:57;2.28;;;2.08;;
8564;SDS011;4320;51.498;6.556;2022-08-02T12:21:41;2.22;;;1.85;;
8564;SDS011;4320;51.498;6.556;2022-08-02T12:24:07;3.38;;;1.85;;
8564;SDS011;4320;51.498;6.556;2022-08-02T12:26:44;1.90;;;1.80;;
8564;SDS011;4320;51.498;6.556;2022-08-02T12:29:12;2.33;;;1.70;;
8564;SDS011;4320;51.498;6.556;2022-08-02T12:31:42;3.28;;;2.13;;
8564;SDS011;4320;51.498;6.556;2022-08-02T12:34:21;2.70;;;1.77;;
8564;SDS011;4320;51.498;6.556;2022-08-02T12:37:09;3.88;;;2.00;;
8564;SDS011;4320;51.498;6.556;2022-08-02T12:39:44;7.82;;;2.20;;
8564;SDS011;4320;51.498;6.556;2022-08-02T12:42:14;5.60;;;1.92;;
8564;SDS011;4320;51.498;6.556;2022-08-02T12:44:56;2.80;;;1.90;;
8564;SDS011;4320;51.498;6.556;2022-08-02T12:47:23;2.35;;;2.00;;
8564;SDS011;4320;51.498;6.556;2022-08-02T12:52:35;7.47;;;1.90;;
8564;SDS011;4320;51.498;6.556;2022-08-02T12:55:13;2.03;;;1.85;;
8564;SDS011;4320;51.498;6.556;2022-08-02T12:57:49;5.53;;;1.80;;
8564;SDS011;4320;51.498;6.556;2022-08-02T13:03:16;8.00;;;1.92;;
8564;SDS011;4320;51.498;6.556;2022-08-02T13:05:44;3.00;;;2.20;;
8564;SDS011;4320;51.498;6.556;2022-08-02T13:08:10;3.15;;;1.95;;
8564;SDS011;4320;51.498;6.556;2022-08-02T13:10:35;2.08;;;1.90;;
8564;SDS011;4320;51.498;6.556;2022-08-02T13:13:01;1.92;;;1.70;;
8564;SDS011;4320;51.498;6.556;2022-08-02T13:15:27;3.20;;;2.10;;
8564;SDS011;4320;51.498;6.556;2022-08-02T13:17:53;1.90;;;1.70;;
8564;SDS011;4320;51.498;6.556;2022-08-02T13:20:18;2.72;;;1.80;;
8564;SDS011;4320;51.498;6.556;2022-08-02T13:22:45;2.22;;;1.92;;
8564;SDS011;4320;51.498;6.556;2022-08-02T13:25:10;3.83;;;1.90;;
8564;SDS011;4320;51.498;6.556;2022-08-02T13:27:36;2.58;;;2.10;;
8564;SDS011;4320;51.498;6.556;2022-08-02T13:30:03;2.50;;;1.63;;
8564;SDS011;4320;51.498;6.556;2022-08-02T13:32:29;2.47;;;1.80;;
8564;SDS011;4320;51.498;6.556;2022-08-02T13:34:56;2.75;;;1.80;;
8564;SDS011;4320;51.498;6.556;2022-08-02T13:37:22;4.10;;;2.00;;
8564;SDS011;4320;51.498;6.556;2022-08-02T13:39:48;3.35;;;2.03;;
8564;SDS011;4320;51.498;6.556;2022-08-02T13:42:14;1.85;;;1.75;;
8564;SDS011;4320;51.498;6.556;2022-08-02T13:44:40;2.05;;;1.83;;
8564;SDS011;4320;51.498;6.556;2022-08-02T13:47:06;2.00;;;1.80;;
8564;SDS011;4320;51.498;6.556;2022-08-02T13:49:35;1.90;;;1.80;;
8564;SDS011;4320;51.498;6.556;2022-08-02T13:52:04;4.50;;;1.90;;
8564;SDS011;4320;51.498;6.556;2022-08-02T13:54:30;2.00;;;1.80;;
8564;SDS011;4320;51.498;6.556;2022-08-02T13:56:56;2.25;;;1.65;;
8564;SDS011;4320;51.498;6.556;2022-08-02T13:59:21;1.67;;;1.58;;
8564;SDS011;4320;51.498;6.556;2022-08-02T14:01:47;1.95;;;1.75;;
8564;SDS011;4320;51.498;6.556;2022-08-02T14:04:13;3.38;;;1.95;;
8564;SDS011;4320;51.498;6.556;2022-08-02T14:06:38;1.80;;;1.55;;
8564;SDS011;4320;51.498;6.556;2022-08-02T14:09:04;1.98;;;1.77;;
8564;SDS011;4320;51.498;6.556;2022-08-02T14:11:30;2.35;;;1.98;;
8564;SDS011;4320;51.498;6.556;2022-08-02T14:13:55;2.17;;;2.05;;
8564;SDS011;4320;51.498;6.556;2022-08-02T14:16:21;1.90;;;1.80;;
8564;SDS011;4320;51.498;6.556;2022-08-02T14:18:47;4.40;;;2.05;;
8564;SDS011;4320;51.498;6.556;2022-08-02T14:21:12;2.95;;;1.98;;
8564;SDS011;4320;51.498;6.556;2022-08-02T14:23:38;1.77;;;1.67;;
8564;SDS011;4320;51.498;6.556;2022-08-02T14:26:04;6.78;;;2.40;;
8564;SDS011;4320;51.498;6.556;2022-08-02T14:28:33;3.17;;;2.70;;
8564;SDS011;4320;51.498;6.556;2022-08-02T14:30:59;2.40;;;2.03;;
8564;SDS011;4320;51.498;6.556;2022-08-02T14:33:25;1.98;;;1.42;;
8564;SDS011;4320;51.498;6.556;2022-08-02T14:35:51;2.47;;;1.48;;
8564;SDS011;4320;51.498;6.556;2022-08-02T14:38:16;1.48;;;1.38;;
8564;SDS011;4320;51.498;6.556;2022-08-02T14:40:43;1.95;;;1.65;;
8564;SDS011;4320;51.498;6.556;2022-08-02T14:43:09;3.22;;;1.80;;
8564;SDS011;4320;51.498;6.556;2022-08-02T14:45:35;3.20;;;1.85;;
8564;SDS011;4320;51.498;6.556;2022-08-02T14:48:01;7.00;;;2.25;;
8564;SDS011;4320;51.498;6.556;2022-08-02T14:50:27;7.63;;;1.80;;
8564;SDS011;4320;51.498;6.556;2022-08-02T14:52:52;4.30;;;1.80;;
8564;SDS011;4320;51.498;6.556;2022-08-02T14:55:18;2.90;;;1.63;;
8564;SDS011;4320;51.498;6.556;2022-08-02T14:57:44;2.42;;;1.67;;
8564;SDS011;4320;51.498;6.556;2022-08-02T15:00:09;2.38;;;1.70;;
8564;SDS011;4320;51.498;6.556;2022-08-02T15:02:36;2.35;;;1.90;;
8564;SDS011;4320;51.498;6.556;2022-08-02T15:05:02;2.95;;;1.60;;
8564;SDS011;4320;51.498;6.556;2022-08-02T15:07:27;1.60;;;1.40;;
8564;SDS011;4320;51.498;6.556;2022-08-02T15:09:53;2.05;;;1.70;;
8564;SDS011;4320;51.498;6.556;2022-08-02T15:12:18;1.60;;;1.50;;
8564;SDS011;4320;51.498;6.556;2022-08-02T15:14:44;2.35;;;1.67;;
8564;SDS011;4320;51.498;6.556;2022-08-02T15:17:10;1.90;;;1.50;;
8564;SDS011;4320;51.498;6.556;2022-08-02T15:19:35;2.42;;;1.80;;
8564;SDS011;4320;51.498;6.556;2022-08-02T15:22:02;2.30;;;1.70;;
8564;SDS011;4320;51.498;6.556;2022-08-02T15:24:27;5.53;;;1.65;;
8564;SDS011;4320;51.498;6.556;2022-08-02T15:26:53;3.65;;;1.90;;
8564;SDS011;4320;51.498;6.556;2022-08-02T15:29:19;1.83;;;1.60;;
8564;SDS011;4320;51.498;6.556;2022-08-02T15:31:45;1.73;;;1.52;;
8564;SDS011;4320;51.498;6.556;2022-08-02T15:34:11;4.72;;;1.42;;
8564;SDS011;4320;51.498;6.556;2022-08-02T15:36:37;3.97;;;1.75;;
8564;SDS011;4320;51.498;6.556;2022-08-02T15:39:03;2.92;;;1.48;;
8564;SDS011;4320;51.498;6.556;2022-08-02T15:41:29;1.80;;;1.42;;
8564;SDS011;4320;51.498;6.556;2022-08-02T15:43:55;1.77;;;1.65;;
8564;SDS011;4320;51.498;6.556;2022-08-02T15:46:21;2.38;;;1.58;;
8564;SDS011;4320;51.498;6.556;2022-08-02T15:48:47;1.52;;;1.42;;
8564;SDS011;4320;51.498;6.556;2022-08-02T15:51:12;6.40;;;1.90;;
8564;SDS011;4320;51.498;6.556;2022-08-02T15:53:38;5.50;;;1.60;;
8564;SDS011;4320;51.498;6.556;2022-08-02T15:56:04;3.00;;;1.70;;